Time;durP1;ratioP1;P1;durP2;ratioP2;P2;SDS_P1;SDS_P2;PMS_P1;PMS_P2;Temp;Humidity;BMP_temperature;BMP_pressure;BME280_temperature;BME280_humidity;BME280_pressure;Samples;Min_cycle;Max_cycle;Signal;HPM_P1;HPM_P2
2023/04/04 00:01:03;;;;;;;7.95;3.00;;;5.10;99.90;;;;;;5124535;27;20424;-75
2023/04/04 00:03:28;;;;;;;7.55;3.08;;;5.10;99.90;;;;;;5109027;28;20438;-76
2023/04/04 00:05:54;;;;;;;8.87;3.50;;;5.10;99.90;;;;;;5090930;28;20403;-75
2023/04/04 00:08:20;;;;;;;7.22;2.70;;;5.10;99.90;;;;;;5125020;27;20456;-75
2023/04/04 00:10:46;;;;;;;5.55;2.70;;;5.10;99.90;;;;;;5107550;28;20419;-76
2023/04/04 00:13:12;;;;;;;5.30;2.70;;;5.00;99.90;;;;;;5090222;28;20401;-75
2023/04/04 00:15:37;;;;;;;5.97;2.43;;;5.00;99.90;;;;;;5107889;28;20464;-75
2023/04/04 00:18:03;;;;;;;8.18;2.83;;;5.00;99.90;;;;;;5107904;28;20429;-75
2023/04/04 00:20:30;;;;;;;4.50;2.50;;;4.90;99.90;;;;;;5107433;28;20439;-76
2023/04/04 00:22:56;;;;;;;6.13;2.60;;;4.90;99.90;;;;;;5108045;28;20396;-75
2023/04/04 00:25:22;;;;;;;5.72;2.58;;;4.90;99.90;;;;;;5107806;28;20496;-75
2023/04/04 00:27:48;;;;;;;5.93;2.37;;;4.80;99.90;;;;;;5073076;28;20519;-75
2023/04/04 00:30:14;;;;;;;6.60;2.30;;;4.80;99.90;;;;;;5106864;28;20431;-75
2023/04/04 00:32:39;;;;;;;6.70;2.35;;;4.70;99.90;;;;;;5089652;28;20471;-75
2023/04/04 00:35:06;;;;;;;5.10;2.17;;;4.70;99.90;;;;;;5107502;28;21109;-75
2023/04/04 00:37:31;;;;;;;5.70;2.22;;;4.70;99.90;;;;;;5105373;28;20408;-75
2023/04/04 00:39:57;;;;;;;7.10;2.55;;;4.60;99.90;;;;;;5107612;28;20862;-75
2023/04/04 00:42:23;;;;;;;4.50;1.90;;;4.60;99.90;;;;;;5122815;27;20482;-76
2023/04/04 00:44:50;;;;;;;3.90;1.77;;;4.50;99.90;;;;;;5107009;28;20400;-76
2023/04/04 00:47:16;;;;;;;4.13;1.73;;;4.50;99.90;;;;;;5105029;28;20436;-76
2023/04/04 00:49:45;;;;;;;5.13;1.92;;;4.40;99.90;;;;;;5106964;28;20439;-75
2023/04/04 00:52:11;;;;;;;4.50;1.95;;;4.40;99.90;;;;;;5089349;28;20495;-76
2023/04/04 00:54:37;;;;;;;5.70;2.27;;;4.40;99.90;;;;;;5088527;28;20492;-75
2023/04/04 00:57:05;;;;;;;3.60;1.60;;;4.30;99.90;;;;;;5107203;28;20407;-75
2023/04/04 00:59:31;;;;;;;7.03;1.88;;;4.30;99.90;;;;;;5107388;28;20509;-76
2023/04/04 01:01:58;;;;;;;5.38;1.83;;;4.30;99.90;;;;;;5106972;28;20884;-75
2023/04/04 01:04:24;;;;;;;4.63;1.80;;;4.30;99.90;;;;;;5108089;28;20393;-75
2023/04/04 01:06:50;;;;;;;6.43;2.03;;;4.20;99.90;;;;;;5107147;28;21244;-75
2023/04/04 01:09:17;;;;;;;5.82;1.90;;;4.20;99.90;;;;;;5089010;28;20400;-76
2023/04/04 01:11:43;;;;;;;3.42;1.50;;;4.10;99.90;;;;;;5107055;28;20396;-75
2023/04/04 01:14:09;;;;;;;4.95;1.80;;;4.10;99.90;;;;;;5123257;27;20483;-76
2023/04/04 01:16:35;;;;;;;5.47;1.73;;;4.00;99.90;;;;;;5107270;28;20476;-75
2023/04/04 01:19:02;;;;;;;5.13;1.90;;;4.00;99.90;;;;;;5088071;28;20410;-76
2023/04/04 01:21:28;;;;;;;5.45;1.70;;;4.00;99.90;;;;;;5107346;28;20432;-76
2023/04/04 01:23:57;;;;;;;4.35;1.52;;;3.90;99.90;;;;;;5106887;28;20404;-75
2023/04/04 01:26:22;;;;;;;3.85;1.40;;;4.00;99.90;;;;;;5107199;28;20503;-74
2023/04/04 01:28:48;;;;;;;3.47;1.65;;;3.90;99.90;;;;;;5106785;28;20814;-75
2023/04/04 01:31:20;;;;;;;6.17;1.70;;;3.90;99.90;;;;;;5107137;28;20495;-74
2023/04/04 01:34:01;;;;;;;5.10;2.03;;;3.80;99.90;;;;;;5107089;28;20400;-75
2023/04/04 01:36:34;;;;;;;4.38;1.88;;;3.80;99.90;;;;;;5106474;28;21002;-74
2023/04/04 01:39:26;;;;;;;4.60;1.77;;;3.80;99.90;;;;;;5106974;28;20392;-74
2023/04/04 01:41:55;;;;;;;6.40;1.90;;;3.80;99.90;;;;;;5088244;28;20496;-74
2023/04/04 01:44:21;;;;;;;4.93;2.13;;;3.70;99.90;;;;;;5107301;28;20483;-74
2023/04/04 01:46:52;;;;;;;5.97;1.90;;;3.70;99.90;;;;;;5087966;28;20407;-74
2023/04/04 01:49:18;;;;;;;6.07;2.47;;;3.70;99.90;;;;;;5106966;28;20973;-75
2023/04/04 01:51:45;;;;;;;5.38;2.10;;;3.60;99.90;;;;;;5087861;28;20490;-74
2023/04/04 01:54:11;;;;;;;4.68;2.08;;;3.70;99.90;;;;;;5088889;28;20404;-74
2023/04/04 01:56:36;;;;;;;3.90;1.98;;;3.60;99.90;;;;;;5106570;28;20757;-74
2023/04/04 01:59:02;;;;;;;4.95;2.03;;;3.60;99.90;;;;;;5090975;28;20959;-75
2023/04/04 02:01:28;;;;;;;6.70;2.70;;;3.60;99.90;;;;;;5111428;28;20436;-75
2023/04/04 02:03:53;;;;;;;6.43;2.35;;;3.50;99.90;;;;;;5093737;28;20499;-74
2023/04/04 02:06:19;;;;;;;5.85;2.10;;;3.60;99.90;;;;;;5111011;28;20408;-74
2023/04/04 02:08:45;;;;;;;5.90;2.10;;;3.50;99.90;;;;;;5111479;28;20396;-75
2023/04/04 02:11:11;;;;;;;5.28;1.98;;;3.50;99.90;;;;;;5092550;28;20938;-74
2023/04/04 02:13:40;;;;;;;5.20;2.10;;;3.50;99.90;;;;;;5111001;28;20404;-74
2023/04/04 02:16:05;;;;;;;6.05;2.30;;;3.40;99.90;;;;;;5092550;28;20404;-74
2023/04/04 02:18:32;;;;;;;5.32;2.40;;;3.40;99.90;;;;;;5111446;28;21007;-74
2023/04/04 02:20:58;;;;;;;7.45;2.60;;;3.30;99.90;;;;;;5110780;28;20432;-74
2023/04/04 02:23:24;;;;;;;6.70;2.40;;;3.30;99.90;;;;;;5111301;28;20400;-74
2023/04/04 02:25:50;;;;;;;4.75;2.00;;;3.20;99.90;;;;;;5110932;28;20400;-74
2023/04/04 02:28:16;;;;;;;4.50;2.25;;;3.20;99.90;;;;;;5075320;28;20412;-75
2023/04/04 02:30:41;;;;;;;5.33;2.33;;;3.20;99.90;;;;;;5111057;28;20411;-74
2023/04/04 02:33:07;;;;;;;4.87;2.00;;;3.20;99.90;;;;;;5111307;28;20453;-75
2023/04/04 02:35:33;;;;;;;6.40;2.80;;;3.10;99.90;;;;;;5091654;28;20408;-75
2023/04/04 02:37:59;;;;;;;6.30;2.03;;;3.10;99.90;;;;;;5110862;28;20401;-75
2023/04/04 02:40:25;;;;;;;5.80;2.17;;;3.10;99.90;;;;;;5108690;28;20440;-75
2023/04/04 02:42:50;;;;;;;5.77;2.40;;;3.00;99.90;;;;;;5110784;28;20415;-75
2023/04/04 02:45:16;;;;;;;5.83;2.40;;;3.00;99.90;;;;;;5108456;28;20396;-75
2023/04/04 02:47:48;;;;;;;6.30;2.22;;;2.90;99.90;;;;;;5091941;28;20408;-75
2023/04/04 02:50:14;;;;;;;4.57;2.13;;;2.90;99.90;;;;;;5108331;28;20396;-74
2023/04/04 02:52:39;;;;;;;5.10;2.30;;;2.90;99.90;;;;;;5092102;28;20453;-74
2023/04/04 02:55:06;;;;;;;4.90;2.50;;;2.80;99.90;;;;;;5092432;28;20453;-74
2023/04/04 02:57:32;;;;;;;4.60;2.00;;;2.80;99.90;;;;;;5075136;28;21515;-75
2023/04/04 02:59:57;;;;;;;4.57;1.90;;;2.70;99.90;;;;;;5091837;28;20495;-75
2023/04/04 03:02:24;;;;;;;4.47;1.80;;;2.70;99.90;;;;;;5092456;28;20404;-74
2023/04/04 03:04:50;;;;;;;5.32;2.08;;;2.60;99.90;;;;;;5107410;28;20404;-74
2023/04/04 03:07:15;;;;;;;6.00;1.80;;;2.60;99.90;;;;;;5110518;28;20403;-75
2023/04/04 03:09:43;;;;;;;4.13;1.60;;;2.60;99.90;;;;;;5109665;28;20736;-74
2023/04/04 03:12:10;;;;;;;5.75;1.80;;;2.60;99.90;;;;;;5110560;28;21182;-75
2023/04/04 03:14:36;;;;;;;6.60;2.13;;;2.50;99.90;;;;;;5126117;27;20438;-74
2023/04/04 03:17:02;;;;;;;5.38;1.60;;;2.50;99.90;;;;;;5091814;28;20936;-75
2023/04/04 03:19:27;;;;;;;5.93;1.70;;;2.50;99.90;;;;;;5110086;28;20404;-74
2023/04/04 03:21:53;;;;;;;5.38;1.88;;;2.40;99.90;;;;;;5109576;28;20432;-75
2023/04/04 03:24:18;;;;;;;4.83;1.80;;;2.50;99.90;;;;;;5110168;28;20408;-74
2023/04/04 03:26:44;;;;;;;4.30;1.60;;;2.50;99.90;;;;;;5109790;28;20428;-74
2023/04/04 03:29:10;;;;;;;4.37;2.00;;;2.50;99.90;;;;;;5091968;28;20412;-75
2023/04/04 03:31:35;;;;;;;8.05;2.47;;;2.50;99.90;;;;;;5110035;28;20484;-74
2023/04/04 03:34:01;;;;;;;4.90;1.90;;;2.40;99.90;;;;;;5109807;28;20408;-75
2023/04/04 03:36:27;;;;;;;5.03;2.00;;;2.50;99.90;;;;;;5109864;28;20801;-74
2023/04/04 03:38:52;;;;;;;6.00;2.33;;;2.40;99.90;;;;;;5108324;28;20411;-74
2023/04/04 03:41:18;;;;;;;4.47;2.13;;;2.40;99.90;;;;;;5109730;28;20512;-74
2023/04/04 03:43:44;;;;;;;7.07;2.30;;;2.40;99.90;;;;;;5091730;28;20442;-74
2023/04/04 03:46:10;;;;;;;6.17;2.30;;;2.40;99.90;;;;;;5109289;28;20404;-74
2023/04/04 03:48:36;;;;;;;3.90;2.05;;;2.40;99.90;;;;;;5109451;28;20451;-75
2023/04/04 03:51:03;;;;;;;5.28;2.28;;;2.40;99.90;;;;;;5109800;28;20397;-74
2023/04/04 03:53:28;;;;;;;6.43;2.13;;;2.40;99.90;;;;;;5109589;28;20407;-75
2023/04/04 03:55:55;;;;;;;5.22;2.00;;;2.40;99.90;;;;;;5109614;28;20400;-75
2023/04/04 03:58:21;;;;;;;6.72;2.63;;;2.30;99.90;;;;;;5091192;28;20443;-74
2023/04/04 04:00:47;;;;;;;5.82;2.40;;;2.30;99.90;;;;;;5109425;28;20463;-74
2023/04/04 04:03:13;;;;;;;7.43;2.08;;;2.30;99.90;;;;;;5109549;28;20440;-74
2023/04/04 04:05:38;;;;;;;5.97;2.03;;;2.30;99.90;;;;;;5109060;28;20404;-75
2023/04/04 04:08:04;;;;;;;5.50;2.13;;;2.30;99.90;;;;;;5109249;28;20408;-74
2023/04/04 04:10:31;;;;;;;5.77;2.10;;;2.30;99.90;;;;;;5108785;28;20950;-74
2023/04/04 04:12:57;;;;;;;6.05;2.00;;;2.20;99.90;;;;;;5108871;28;20985;-74
2023/04/04 04:15:23;;;;;;;5.38;2.22;;;2.20;99.90;;;;;;5090763;28;20411;-75
2023/04/04 04:17:49;;;;;;;5.40;2.22;;;2.10;99.90;;;;;;5090677;28;20487;-74
2023/04/04 04:20:15;;;;;;;5.68;2.50;;;2.00;99.90;;;;;;5108550;28;20424;-75
2023/04/04 04:22:47;;;;;;;5.97;2.25;;;2.00;99.90;;;;;;5108181;28;20449;-74
2023/04/04 04:25:16;;;;;;;5.50;2.50;;;1.90;99.90;;;;;;5108916;28;20905;-75
2023/04/04 04:27:43;;;;;;;4.90;2.38;;;1.80;99.90;;;;;;5108475;28;20412;-75
2023/04/04 04:30:09;;;;;;;8.05;2.67;;;1.80;99.90;;;;;;5109148;28;20404;-74
2023/04/04 04:32:35;;;;;;;6.10;2.47;;;1.80;99.90;;;;;;5073490;28;20816;-74
2023/04/04 04:35:00;;;;;;;6.43;2.20;;;1.80;99.90;;;;;;5108631;28;20427;-74
2023/04/04 04:37:26;;;;;;;5.63;2.30;;;1.70;99.90;;;;;;5108672;28;20416;-75
2023/04/04 04:39:52;;;;;;;7.90;2.50;;;1.70;99.90;;;;;;5108406;28;20408;-75
2023/04/04 04:42:18;;;;;;;5.85;2.22;;;1.70;99.90;;;;;;5108440;28;20408;-75
2023/04/04 04:44:44;;;;;;;5.80;2.42;;;1.70;99.90;;;;;;5090086;28;20396;-75
2023/04/04 04:47:10;;;;;;;7.97;2.70;;;1.70;99.90;;;;;;5090098;28;20408;-74
2023/04/04 04:49:35;;;;;;;4.80;2.90;;;1.70;99.90;;;;;;5090401;28;20405;-74
2023/04/04 04:52:01;;;;;;;7.75;2.50;;;1.80;99.90;;;;;;5108432;28;20465;-75
2023/04/04 04:54:27;;;;;;;7.85;3.08;;;1.70;99.90;;;;;;5108051;28;20461;-75
2023/04/04 04:56:55;;;;;;;6.13;2.90;;;1.70;99.90;;;;;;5124370;27;20572;-75
2023/04/04 04:59:24;;;;;;;6.20;2.83;;;1.70;99.90;;;;;;5108180;28;20412;-75
2023/04/04 05:01:50;;;;;;;5.70;2.90;;;1.70;99.90;;;;;;5123870;27;20798;-75
2023/04/04 05:04:16;;;;;;;4.90;2.80;;;1.70;99.90;;;;;;5108314;28;20408;-75
2023/04/04 05:06:42;;;;;;;7.65;3.05;;;1.70;99.90;;;;;;5089642;28;20417;-75
2023/04/04 05:09:07;;;;;;;5.17;2.50;;;1.70;99.90;;;;;;5108134;28;20397;-75
2023/04/04 05:11:33;;;;;;;6.85;2.47;;;1.70;99.90;;;;;;5089402;28;20489;-75
2023/04/04 05:13:59;;;;;;;6.60;2.90;;;1.70;99.90;;;;;;5108084;28;20925;-75
2023/04/04 05:16:24;;;;;;;7.32;3.03;;;1.70;99.90;;;;;;5089716;28;20408;-75
2023/04/04 05:18:50;;;;;;;7.90;2.60;;;1.70;99.90;;;;;;5108126;28;20408;-75
2023/04/04 05:21:16;;;;;;;6.03;2.63;;;1.70;99.90;;;;;;5107095;28;20424;-75
2023/04/04 05:23:43;;;;;;;5.53;2.70;;;1.70;99.90;;;;;;5090135;28;20932;-75
2023/04/04 05:26:09;;;;;;;9.00;3.03;;;1.80;99.90;;;;;;5089710;28;20409;-75
2023/04/04 05:28:35;;;;;;;7.03;2.80;;;1.80;99.90;;;;;;5108346;28;20427;-75
2023/04/04 05:31:01;;;;;;;6.67;3.23;;;1.80;99.90;;;;;;5108151;28;20743;-75
2023/04/04 05:33:26;;;;;;;8.65;3.22;;;1.80;99.90;;;;;;5092096;28;20428;-75
2023/04/04 05:35:52;;;;;;;9.63;3.33;;;1.90;99.90;;;;;;5111697;28;20400;-75
2023/04/04 05:38:18;;;;;;;8.00;3.47;;;1.80;99.90;;;;;;5111983;28;20411;-75
2023/04/04 05:40:44;;;;;;;6.07;2.65;;;1.80;99.90;;;;;;5112173;28;20424;-73
2023/04/04 05:43:10;;;;;;;6.18;3.17;;;1.80;99.90;;;;;;5093211;28;20940;-73
2023/04/04 05:45:35;;;;;;;7.50;2.92;;;1.80;99.90;;;;;;5091769;28;20412;-73
2023/04/04 05:48:01;;;;;;;9.25;2.97;;;1.90;99.90;;;;;;5117688;27;20514;-74
2023/04/04 05:50:27;;;;;;;6.93;2.93;;;1.90;99.90;;;;;;5094421;27;20771;-74
2023/04/04 05:52:54;;;;;;;5.72;3.17;;;2.00;99.90;;;;;;5122036;27;20767;-75
2023/04/04 05:55:20;;;;;;;9.05;3.50;;;2.00;99.90;;;;;;5126915;27;20445;-75
2023/04/04 05:57:50;;;;;;;8.30;3.47;;;2.10;99.90;;;;;;5111502;28;20396;-75
2023/04/04 06:00:17;;;;;;;8.43;3.30;;;2.10;99.90;;;;;;5111014;28;20420;-75
2023/04/04 06:02:43;;;;;;;9.15;3.85;;;2.10;99.90;;;;;;5111485;28;20408;-75
2023/04/04 06:05:10;;;;;;;9.68;4.32;;;2.10;99.90;;;;;;5093117;28;20399;-75
2023/04/04 06:07:36;;;;;;;9.00;3.83;;;2.20;99.90;;;;;;5092916;28;20524;-75
2023/04/04 06:10:02;;;;;;;10.30;4.75;;;2.20;99.90;;;;;;5111848;28;20451;-75
2023/04/04 06:12:28;;;;;;;15.60;4.80;;;2.20;99.90;;;;;;5092792;28;20736;-75
2023/04/04 06:14:54;;;;;;;11.63;4.60;;;2.30;99.90;;;;;;5111376;28;20407;-75
2023/04/04 06:17:19;;;;;;;12.53;4.40;;;2.40;99.90;;;;;;5093220;28;20401;-75
2023/04/04 06:19:45;;;;;;;13.13;5.10;;;2.40;99.90;;;;;;5094492;28;20408;-75
2023/04/04 06:22:10;;;;;;;12.95;5.00;;;2.50;99.90;;;;;;5111327;28;20431;-75
2023/04/04 06:24:36;;;;;;;11.03;5.00;;;2.60;99.90;;;;;;5078576;28;20499;-75
2023/04/04 06:27:02;;;;;;;10.52;4.70;;;2.70;99.90;;;;;;5110849;28;20841;-75
2023/04/04 06:29:28;;;;;;;13.43;5.60;;;2.80;99.90;;;;;;5093178;28;20423;-75
2023/04/04 06:31:53;;;;;;;9.90;4.60;;;2.90;99.90;;;;;;5110822;28;20464;-75
2023/04/04 06:34:22;;;;;;;9.93;4.00;;;3.00;99.90;;;;;;5110719;28;20400;-75
2023/04/04 06:36:47;;;;;;;9.25;3.60;;;3.10;99.90;;;;;;5092322;28;20408;-75
2023/04/04 06:39:13;;;;;;;8.98;3.60;;;3.20;99.90;;;;;;5110887;28;20408;-75
2023/04/04 06:41:39;;;;;;;8.47;3.70;;;3.20;99.90;;;;;;5092188;28;20782;-75
2023/04/04 06:44:05;;;;;;;7.82;3.17;;;3.30;99.90;;;;;;5110104;28;20439;-75
2023/04/04 06:46:31;;;;;;;10.07;3.45;;;3.40;99.90;;;;;;5109772;28;20408;-75
2023/04/04 06:48:57;;;;;;;9.57;3.15;;;3.50;99.90;;;;;;5110700;28;20446;-75
2023/04/04 06:51:23;;;;;;;9.80;3.42;;;3.50;99.90;;;;;;5110586;28;20447;-76
2023/04/04 06:53:49;;;;;;;6.20;2.38;;;3.60;99.90;;;;;;5126504;27;20400;-75
2023/04/04 06:56:15;;;;;;;5.83;2.50;;;3.70;99.90;;;;;;5110341;28;20405;-75
2023/04/04 06:58:41;;;;;;;5.97;2.40;;;3.70;99.90;;;;;;5092373;28;20812;-75
2023/04/04 07:01:07;;;;;;;7.88;2.90;;;3.80;99.90;;;;;;5110145;28;20444;-75
2023/04/04 07:03:33;;;;;;;10.60;4.00;;;3.80;99.90;;;;;;5110429;28;20435;-75
2023/04/04 07:06:03;;;;;;;8.97;2.60;;;3.80;99.90;;;;;;5092301;28;20404;-76
2023/04/04 07:08:29;;;;;;;6.47;2.55;;;3.90;99.90;;;;;;5092124;28;20400;-75
2023/04/04 07:10:55;;;;;;;4.85;1.90;;;3.90;99.90;;;;;;5091710;28;20483;-76
2023/04/04 07:13:22;;;;;;;5.80;2.13;;;4.00;99.90;;;;;;5108800;28;20416;-76
2023/04/04 07:15:48;;;;;;;5.95;2.00;;;4.00;99.90;;;;;;5092100;28;20419;-75
2023/04/04 07:18:14;;;;;;;5.60;2.42;;;4.10;99.90;;;;;;5110326;28;20438;-76
2023/04/04 07:20:40;;;;;;;8.23;2.72;;;4.10;99.90;;;;;;5109810;28;20424;-76
2023/04/04 07:23:06;;;;;;;7.38;2.30;;;4.10;99.90;;;;;;5109826;28;20396;-76
2023/04/04 07:25:31;;;;;;;8.35;2.65;;;4.20;99.90;;;;;;5110117;28;20404;-76
2023/04/04 07:27:57;;;;;;;6.33;2.70;;;4.20;99.90;;;;;;5126041;27;20408;-76
2023/04/04 07:30:26;;;;;;;9.18;2.80;;;4.30;99.90;;;;;;5109756;28;20404;-75
2023/04/04 07:32:59;;;;;;;9.55;3.15;;;4.30;99.90;;;;;;5109795;28;20408;-75
2023/04/04 07:35:24;;;;;;;8.93;2.60;;;4.40;99.90;;;;;;5109548;28;20414;-75
2023/04/04 07:37:51;;;;;;;6.13;2.20;;;4.40;99.90;;;;;;5110230;28;20877;-75
2023/04/04 07:40:17;;;;;;;6.75;2.40;;;4.40;99.90;;;;;;5109363;28;20416;-75
2023/04/04 07:42:44;;;;;;;6.23;2.00;;;4.50;99.90;;;;;;5100427;27;20424;-75
2023/04/04 07:45:10;;;;;;;4.43;1.60;;;4.50;99.90;;;;;;5091032;28;20939;-75
2023/04/04 07:47:36;;;;;;;5.25;2.10;;;4.50;99.90;;;;;;5125727;27;20431;-75
2023/04/04 07:50:03;;;;;;;5.97;1.77;;;4.50;99.90;;;;;;5090980;28;20412;-75
2023/04/04 07:52:28;;;;;;;5.72;1.65;;;4.60;99.90;;;;;;5109570;28;20400;-75
2023/04/04 07:54:54;;;;;;;3.67;1.17;;;4.60;99.90;;;;;;5108313;28;20407;-75
2023/04/04 07:57:20;;;;;;;3.55;1.13;;;4.70;99.90;;;;;;5108525;28;20396;-75
2023/04/04 07:59:46;;;;;;;4.47;1.30;;;4.80;99.90;;;;;;5107871;28;20810;-75
2023/04/04 08:02:12;;;;;;;4.37;1.40;;;4.80;99.90;;;;;;5090336;28;20432;-75
2023/04/04 08:04:37;;;;;;;6.70;2.50;;;4.90;99.90;;;;;;5089920;28;20924;-75
2023/04/04 08:07:03;;;;;;;4.93;1.42;;;4.90;99.90;;;;;;5090308;28;20403;-75
2023/04/04 08:09:33;;;;;;;5.90;1.40;;;5.00;99.90;;;;;;5107643;28;20465;-75
2023/04/04 08:12:00;;;;;;;4.65;1.65;;;5.00;99.90;;;;;;5073035;28;20417;-75
2023/04/04 08:14:26;;;;;;;5.35;1.63;;;5.10;99.90;;;;;;5089883;28;20413;-75
2023/04/04 08:16:52;;;;;;;5.22;1.30;;;5.10;99.90;;;;;;5089906;28;20400;-75
2023/04/04 08:19:18;;;;;;;6.00;1.50;;;5.00;99.90;;;;;;5108606;28;20404;-75
2023/04/04 08:21:44;;;;;;;4.40;1.52;;;5.10;99.90;;;;;;5109028;28;20433;-75
2023/04/04 08:24:11;;;;;;;4.47;1.70;;;5.10;99.90;;;;;;5090602;28;20408;-75
2023/04/04 08:26:37;;;;;;;3.92;1.35;;;5.20;99.90;;;;;;5090843;28;20417;-75
2023/04/04 08:29:02;;;;;;;4.47;1.27;;;5.20;99.90;;;;;;5090223;28;20423;-76
2023/04/04 08:31:28;;;;;;;7.10;1.60;;;5.30;99.90;;;;;;5108256;28;20396;-75
2023/04/04 08:33:54;;;;;;;7.20;1.65;;;5.40;99.90;;;;;;5108280;28;20392;-75
2023/04/04 08:36:21;;;;;;;3.40;1.00;;;5.40;99.90;;;;;;5108569;28;20905;-75
2023/04/04 08:38:47;;;;;;;3.10;1.23;;;5.50;99.90;;;;;;5092899;28;20888;-75
2023/04/04 08:41:14;;;;;;;5.45;1.45;;;5.60;99.90;;;;;;5090640;28;20519;-75
2023/04/04 08:43:44;;;;;;;7.90;1.80;;;5.60;99.90;;;;;;5108696;28;20533;-75
2023/04/04 08:46:11;;;;;;;4.70;1.40;;;5.60;99.90;;;;;;5072746;28;21119;-75
2023/04/04 08:48:40;;;;;;;6.07;1.63;;;5.70;99.90;;;;;;5106414;28;20427;-75
2023/04/04 08:51:09;;;;;;;3.45;1.30;;;5.80;99.90;;;;;;5108710;28;20412;-75
2023/04/04 08:53:36;;;;;;;4.80;1.33;;;5.90;99.90;;;;;;5124005;27;20425;-75
2023/04/04 08:56:02;;;;;;;4.35;1.25;;;5.90;99.90;;;;;;5108012;28;20494;-75
2023/04/04 08:58:27;;;;;;;3.72;1.10;;;6.00;99.90;;;;;;5108668;28;20400;-75
2023/04/04 09:00:54;;;;;;;4.15;1.00;;;6.10;99.90;;;;;;5089676;28;20435;-75
2023/04/04 09:03:26;;;;;;;3.40;0.77;;;6.10;99.60;;;;;;5090027;28;20396;-75
2023/04/04 09:05:55;;;;;;;4.97;1.20;;;6.20;98.40;;;;;;5108495;28;20853;-75
2023/04/04 09:08:23;;;;;;;4.13;1.00;;;6.20;98.10;;;;;;5108080;28;20411;-75
2023/04/04 09:10:50;;;;;;;4.50;1.00;;;6.30;98.00;;;;;;5108429;28;20500;-75
2023/04/04 09:13:16;;;;;;;3.13;0.90;;;6.40;97.60;;;;;;5107737;28;20403;-75
2023/04/04 09:15:49;;;;;;;2.90;1.00;;;6.50;97.60;;;;;;5107916;28;20404;-75
2023/04/04 09:18:15;;;;;;;4.60;1.10;;;6.50;96.30;;;;;;5108610;28;20395;-75
2023/04/04 09:20:43;;;;;;;5.70;1.53;;;6.60;97.40;;;;;;5089860;28;20563;-75
2023/04/04 09:23:14;;;;;;;4.93;1.45;;;6.80;97.90;;;;;;5108338;28;20440;-75
2023/04/04 09:25:51;;;;;;;2.58;0.95;;;7.60;95.50;;;;;;5090120;28;20759;-75
2023/04/04 09:28:18;;;;;;;3.42;1.00;;;8.70;96.10;;;;;;5107946;28;20412;-76
2023/04/04 09:30:47;;;;;;;4.50;1.10;;;9.70;90.00;;;;;;5102506;28;20401;-76
2023/04/04 09:33:14;;;;;;;5.07;1.10;;;10.50;80.10;;;;;;5108294;28;20407;-76
2023/04/04 09:36:03;;;;;;;4.60;1.38;;;11.10;84.80;;;;;;5123708;27;20541;-77
2023/04/04 09:38:30;;;;;;;4.32;1.10;;;11.70;78.10;;;;;;5106998;28;20794;-77
2023/04/04 09:40:56;;;;;;;4.15;1.30;;;12.00;76.60;;;;;;5107806;28;20436;-77
2023/04/04 09:43:25;;;;;;;5.38;1.50;;;12.40;73.60;;;;;;5107693;28;20393;-76
2023/04/04 09:45:53;;;;;;;3.83;1.23;;;12.80;70.10;;;;;;5105504;28;20905;-76
2023/04/04 09:48:27;;;;;;;4.32;1.50;;;13.10;69.50;;;;;;5089108;28;20415;-77
2023/04/04 09:50:53;;;;;;;3.22;1.50;;;13.20;68.00;;;;;;5108267;28;20401;-76
2023/04/04 09:53:19;;;;;;;4.00;1.20;;;13.30;67.10;;;;;;5089313;28;20407;-76
2023/04/04 09:55:55;;;;;;;3.57;1.47;;;13.40;65.00;;;;;;5108108;28;20400;-77
2023/04/04 09:58:27;;;;;;;4.00;1.50;;;13.70;66.30;;;;;;5086298;28;20417;-77
2023/04/04 10:00:56;;;;;;;4.97;1.60;;;13.90;67.20;;;;;;5107413;28;20485;-76
2023/04/04 10:03:23;;;;;;;5.43;1.60;;;13.90;63.60;;;;;;5089311;28;20408;-76
2023/04/04 10:05:56;;;;;;;3.25;1.48;;;13.80;63.50;;;;;;5089579;28;20411;-77
2023/04/04 10:08:22;;;;;;;4.40;1.40;;;13.90;63.80;;;;;;5089682;28;20415;-76
2023/04/04 10:10:48;;;;;;;3.90;1.70;;;14.10;66.80;;;;;;5107802;28;20408;-77
2023/04/04 10:13:45;;;;;;;5.05;1.58;;;14.40;65.50;;;;;;5107406;28;20467;-77
2023/04/04 10:16:11;;;;;;;5.25;1.60;;;14.70;62.90;;;;;;5104199;28;20407;-77
2023/04/04 10:18:38;;;;;;;4.50;1.67;;;15.00;62.40;;;;;;5123361;27;20400;-76
2023/04/04 10:21:04;;;;;;;;;;;15.10;60.70;;;;;;5112533;28;20040;-77
2023/04/04 10:23:30;;;;;;;;;;;15.10;58.90;;;;;;5113049;28;19920;-76
2023/04/04 10:25:56;;;;;;;;;;;15.00;59.10;;;;;;5113131;28;20648;-77
2023/04/04 10:28:22;;;;;;;;;;;15.20;59.70;;;;;;5094583;28;19935;-76
2023/04/04 10:30:49;;;;;;;;;;;15.20;57.90;;;;;;5112827;28;19923;-76
2023/04/04 10:33:21;;;;;;;;;;;15.00;59.50;;;;;;5112878;28;20373;-76
2023/04/04 10:35:49;;;;;;;;;;;14.60;60.40;;;;;;5094650;28;19926;-76
2023/04/04 10:38:17;;;;;;;;;;;14.50;60.20;;;;;;5112936;28;20881;-76
2023/04/04 10:40:43;;;;;;;;;;;14.70;58.40;;;;;;5112709;28;19934;-76
2023/04/04 10:43:10;;;;;;;;;;;14.70;58.50;;;;;;5093789;28;20010;-76
2023/04/04 10:45:38;;;;;;;;;;;14.70;58.40;;;;;;5128506;27;19920;-76
2023/04/04 10:48:05;;;;;;;;;;;14.70;60.20;;;;;;5112639;28;20300;-76
2023/04/04 10:50:33;;;;;;;;;;;14.60;57.80;;;;;;5112418;28;19927;-76
2023/04/04 10:53:00;;;;;;;;;;;14.40;60.10;;;;;;5112544;28;20285;-76
2023/04/04 10:55:27;;;;;;;;;;;14.30;59.80;;;;;;5112401;28;19926;-76
2023/04/04 10:57:54;;;;;;;;;;;14.40;59.90;;;;;;5112362;28;19937;-76
2023/04/04 11:00:22;;;;;;;;;;;14.40;59.30;;;;;;5094054;28;19965;-76
2023/04/04 11:02:57;;;;;;;;;;;14.20;59.40;;;;;;5093619;28;19963;-76
2023/04/04 11:05:36;;;;;;;;;;;14.10;57.80;;;;;;5094190;28;19926;-76
2023/04/04 11:08:03;;;;;;;;;;;14.20;59.10;;;;;;5127684;27;19919;-76
2023/04/04 11:10:31;;;;;;;;;;;14.40;58.20;;;;;;5094112;28;19919;-76
2023/04/04 11:13:06;;;;;;;;;;;14.50;59.50;;;;;;5112336;28;19924;-76
2023/04/04 11:15:46;;;;;;;;;;;14.60;57.40;;;;;;5111681;28;20024;-76
2023/04/04 11:18:12;;;;;;;;;;;14.60;58.30;;;;;;5111992;28;20381;-75
2023/04/04 11:20:44;;;;;;;;;;;14.80;57.40;;;;;;5111597;28;19920;-76
2023/04/04 11:23:20;;;;;;;;;;;14.80;58.80;;;;;;5112259;28;19920;-76
2023/04/04 11:25:55;;;;;;;;;;;14.90;58.20;;;;;;5111061;28;19920;-75
2023/04/04 11:28:25;;;;;;;;;;;14.90;57.50;;;;;;5076718;28;19972;-76
2023/04/04 11:31:09;;;;;;;;;;;14.90;59.50;;;;;;5108710;28;19923;-77
2023/04/04 11:33:52;;;;;;;;;;;14.90;60.10;;;;;;5092701;28;19919;-77
2023/04/04 11:36:36;;;;;;;;;;;15.20;59.40;;;;;;5093736;28;19920;-77
2023/04/04 11:39:02;;;;;;;;;;;15.20;58.00;;;;;;5090935;28;19977;-77
2023/04/04 11:41:47;;;;;;;5.60;2.30;;;15.40;58.50;;;;;;5111226;28;19927;-77
2023/04/04 11:44:15;;;;;;;4.22;2.15;;;15.70;58.20;;;;;;5110975;28;20051;-77
2023/04/04 11:46:41;;;;;;;6.50;2.38;;;15.90;57.00;;;;;;5110821;28;20127;-76
2023/04/04 11:49:06;;;;;;;;;;;15.60;55.70;;;;;;5111561;28;20118;-77
2023/04/04 11:51:32;;;;;;;;;;;15.20;57.50;;;;;;5092482;28;20677;-77
2023/04/04 11:53:58;;;;;;;;;;;14.80;56.40;;;;;;5092696;28;19919;-77
2023/04/04 11:56:24;;;;;;;;;;;14.70;57.30;;;;;;5110902;28;19977;-76
2023/04/04 11:58:50;;;;;;;;;;;14.70;57.30;;;;;;5111493;28;19955;-76
2023/04/04 12:01:16;;;;;;;;;;;14.70;58.10;;;;;;5110645;28;20385;-76
2023/04/04 12:03:42;;;;;;;;;;;14.60;57.90;;;;;;5111358;28;20444;-76
2023/04/04 12:06:09;;;;;;;;;;;14.70;58.00;;;;;;5092765;28;20002;-77
2023/04/04 12:08:35;;;;;;;;;;;14.90;57.70;;;;;;5110895;28;19920;-77
2023/04/04 12:11:05;;;;;;;;;;;15.30;58.90;;;;;;5092560;28;19973;-77
2023/04/04 12:13:31;;;;;;;;;;;15.40;56.60;;;;;;5110912;28;19923;-77
2023/04/04 12:15:57;;;;;;;;;;;15.60;57.40;;;;;;5110779;28;19923;-77
2023/04/04 12:18:22;;;;;;;;;;;15.60;56.60;;;;;;5110613;28;20369;-77
2023/04/04 12:20:51;;;;;;;;;;;15.70;56.60;;;;;;5092520;28;19920;-77
2023/04/04 12:23:17;;;;;;;;;;;15.90;56.60;;;;;;5110942;28;19963;-76
2023/04/04 12:25:43;;;;;;;4.55;2.35;;;16.00;56.10;;;;;;5110253;28;20356;-77
2023/04/04 12:28:10;;;;;;;5.90;2.70;;;16.10;56.90;;;;;;5109088;28;20442;-77
2023/04/04 12:30:39;;;;;;;5.88;2.50;;;16.10;56.80;;;;;;5108058;28;20472;-76
2023/04/04 12:33:05;;;;;;;5.57;2.40;;;16.10;56.80;;;;;;5109222;28;20511;-77
2023/04/04 12:35:31;;;;;;;5.47;2.70;;;16.30;57.40;;;;;;5108813;28;20403;-77
2023/04/04 12:38:09;;;;;;;;;;;16.50;56.40;;;;;;5110508;28;20047;-76
2023/04/04 12:40:36;;;;;;;;;;;16.60;55.70;;;;;;5101620;28;19920;-76
2023/04/04 12:43:05;;;;;;;;;;;16.60;56.50;;;;;;5109875;28;19919;-77
2023/04/04 12:45:35;;;;;;;;;;;16.60;55.80;;;;;;5109705;28;19931;-76
2023/04/04 12:48:07;;;;;;;;;;;16.50;54.30;;;;;;5110301;28;19920;-76
2023/04/04 12:50:32;;;;;;;;;;;16.40;56.50;;;;;;5110363;28;19972;-77
2023/04/04 12:52:58;;;;;;;;;;;16.50;54.90;;;;;;5110413;28;19927;-76
2023/04/04 12:55:24;;;;;;;;;;;16.60;56.70;;;;;;5109955;28;19920;-76
2023/04/04 12:57:50;;;;;;;;;;;16.60;56.40;;;;;;5110034;28;19984;-77
2023/04/04 13:00:15;;;;;;;;;;;16.50;56.80;;;;;;5109566;28;19965;-76
2023/04/04 13:02:45;;;;;;;;;;;16.40;54.70;;;;;;5109732;28;19968;-77
2023/04/04 13:05:11;;;;;;;;;;;16.60;56.70;;;;;;5091807;28;19920;-76
2023/04/04 13:07:42;;;;;;;;;;;16.40;55.60;;;;;;5108866;28;19981;-76
2023/04/04 13:10:08;;;;;;;;;;;16.00;55.40;;;;;;5108632;28;20393;-76